Time;durP1;ratioP1;P1;durP2;ratioP2;P2;SDS_P1;SDS_P2;PMS_P1;PMS_P2;Temp;Humidity;BMP_temperature;BMP_pressure;BME280_temperature;BME280_humidity;BME280_pressure;Samples;Min_cycle;Max_cycle;Signal;HPM_P1;HPM_P2
2023/01/22 00:00:21;;;;;;;0.40;0.40;;;;;;;6.71;59.44;103500.25;4992827;28;20114;-69
2023/01/22 00:02:47;;;;;;;0.30;0.30;;;;;;;6.59;59.44;103495.97;4991644;28;20039;-71
2023/01/22 00:05:13;;;;;;;0.30;0.30;;;;;;;5.47;62.67;103502.94;4992206;28;20612;-71
2023/01/22 00:07:38;;;;;;;0.40;0.40;;;;;;;6.14;62.24;103492.78;4992893;28;20121;-72
2023/01/22 00:10:04;;;;;;;0.40;0.40;;;;;;;5.84;62.74;103498.91;4992321;28;20045;-72
2023/01/22 00:12:30;;;;;;;0.40;0.40;;;;;;;6.35;60.18;103498.94;4993176;28;20022;-70
2023/01/22 00:14:55;;;;;;;0.40;0.40;;;;;;;6.56;60.08;103497.09;4992248;28;20049;-72
2023/01/22 00:17:20;;;;;;;0.40;0.40;;;;;;;6.35;61.15;103498.94;4992452;28;20454;-70
2023/01/22 00:19:46;;;;;;;0.40;0.40;;;;;;;6.69;59.57;103496.84;4992010;28;20041;-70
2023/01/22 00:22:11;;;;;;;0.40;0.40;;;;;;;5.61;63.65;103502.63;4992119;28;20033;-69
2023/01/22 00:24:38;;;;;;;0.40;0.40;;;;;;;6.64;60.00;103491.94;4992693;28;20406;-71
2023/01/22 00:27:04;;;;;;;0.40;0.40;;;;;;;6.36;60.77;103499.81;4992646;28;20172;-70
2023/01/22 00:29:30;;;;;;;0.40;0.40;;;;;;;6.41;60.77;103490.41;4992569;28;20558;-71
2023/01/22 00:31:55;;;;;;;0.40;0.40;;;;;;;6.44;59.54;103483.97;4992209;28;20113;-70
2023/01/22 00:34:20;;;;;;;0.40;0.40;;;;;;;6.99;58.44;103480.78;4990975;28;20062;-71
2023/01/22 00:36:46;;;;;;;0.37;0.37;;;;;;;6.98;58.40;103482.59;4990066;28;20037;-70
2023/01/22 00:39:11;;;;;;;0.47;0.47;;;;;;;6.88;58.01;103480.88;4992268;28;20041;-70
2023/01/22 00:41:36;;;;;;;0.40;0.40;;;;;;;6.56;59.30;103478.41;4992076;28;20026;-70
2023/01/22 00:44:02;;;;;;;0.40;0.40;;;;;;;6.74;58.67;103475.94;4991897;28;20035;-70
2023/01/22 00:46:27;;;;;;;0.40;0.40;;;;;;;6.82;57.71;103478.78;4991771;28;20034;-71
2023/01/22 00:48:53;;;;;;;0.30;0.30;;;;;;;6.60;58.39;103482.50;4991475;28;20030;-71
2023/01/22 00:51:19;;;;;;;0.33;0.33;;;;;;;6.65;59.13;103480.25;4991952;28;20056;-70
2023/01/22 00:53:44;;;;;;;0.37;0.37;;;;;;;6.69;58.58;103487.03;4990482;28;20143;-71
2023/01/22 00:56:12;;;;;;;0.40;0.40;;;;;;;6.94;58.19;103488.34;4992004;28;20044;-70
2023/01/22 00:58:37;;;;;;;0.30;0.30;;;;;;;6.29;60.50;103488.78;4991860;28;20045;-72
2023/01/22 01:01:04;;;;;;;0.40;0.40;;;;;;;6.50;59.53;103483.44;4991832;28;20101;-70
2023/01/22 01:03:30;;;;;;;0.30;0.30;;;;;;;6.15;60.25;103476.63;4991990;28;20113;-70
2023/01/22 01:06:01;;;;;;;0.40;0.40;;;;;;;6.17;60.34;103482.69;4991422;28;20034;-73
2023/01/22 01:08:27;;;;;;;;;;;;;;;6.25;61.29;103483.88;4990587;28;20031;-71
2023/01/22 01:10:58;;;;;;;0.40;0.40;;;;;;;6.50;59.69;103478.94;4991768;28;19940;-69
2023/01/22 01:13:24;;;;;;;0.30;0.30;;;;;;;6.56;58.91;103475.75;4991594;28;20088;-71
2023/01/22 01:15:49;;;;;;;0.50;0.50;;;;;;;6.56;59.26;103477.56;4992546;28;20081;-71
2023/01/22 01:18:16;;;;;;;0.40;0.40;;;;;;;6.48;59.84;103472.03;4990947;28;20034;-70
2023/01/22 01:20:41;;;;;;;0.40;0.40;;;;;;;5.63;62.77;103478.50;4990922;28;20042;-71
2023/01/22 01:23:06;;;;;;;0.50;0.50;;;;;;;6.04;61.04;103475.88;4991382;28;20038;-71
2023/01/22 01:25:32;;;;;;;0.40;0.40;;;;;;;6.14;60.50;103474.09;4991079;28;20130;-70
2023/01/22 01:27:58;;;;;;;0.40;0.40;;;;;;;6.12;61.14;103479.59;4991661;28;20110;-69
2023/01/22 01:30:24;;;;;;;0.30;0.30;;;;;;;6.15;60.98;103473.16;4990932;28;20042;-72
2023/01/22 01:32:49;;;;;;;0.30;0.30;;;;;;;5.24;63.11;103483.50;4991316;28;20084;-70
2023/01/22 01:35:14;;;;;;;0.47;0.47;;;;;;;6.31;59.96;103484.16;4990899;28;20121;-71
2023/01/22 01:37:40;;;;;;;0.33;0.33;;;;;;;4.76;64.79;103482.13;4991331;28;20035;-71
2023/01/22 01:40:06;;;;;;;0.50;0.50;;;;;;;4.78;66.70;103482.00;4989703;28;20018;-71
2023/01/22 01:42:37;;;;;;;0.43;0.43;;;;;;;5.82;62.94;103478.63;4991413;28;20034;-70
2023/01/22 01:45:21;;;;;;;0.30;0.30;;;;;;;6.52;60.85;103474.31;4988394;28;20399;-71
2023/01/22 01:48:09;;;;;;;0.33;0.33;;;;;;;6.00;62.47;103472.63;4990847;28;20034;-70
2023/01/22 01:50:38;;;;;;;0.47;0.47;;;;;;;5.85;62.22;103473.94;4989606;28;20401;-72
2023/01/22 01:53:03;;;;;;;0.30;0.30;;;;;;;5.68;62.80;103473.63;4990319;28;20069;-71
2023/01/22 01:55:33;;;;;;;0.50;0.50;;;;;;;5.98;61.82;103469.25;4990645;28;20038;-72
2023/01/22 01:58:04;;;;;;;0.40;0.40;;;;;;;5.77;62.71;103471.03;4990883;28;20537;-71
2023/01/22 02:00:33;;;;;;;0.30;0.30;;;;;;;5.62;63.33;103466.97;4989374;28;20033;-72
2023/01/22 02:02:59;;;;;;;0.40;0.40;;;;;;;5.51;63.95;103471.50;4989721;28;20030;-71
2023/01/22 02:05:29;;;;;;;0.50;0.50;;;;;;;5.47;63.78;103460.25;4990506;28;20523;-72
2023/01/22 02:07:55;;;;;;;0.40;0.40;;;;;;;5.74;62.65;103457.13;4990610;28;20569;-71
2023/01/22 02:10:20;;;;;;;0.30;0.30;;;;;;;5.74;62.77;103462.47;4990381;28;20440;-70
2023/01/22 02:12:46;;;;;;;0.40;0.40;;;;;;;6.00;61.72;103458.44;4989408;28;20026;-70
2023/01/22 02:15:12;;;;;;;0.40;0.40;;;;;;;5.73;62.54;103453.59;4991288;28;20026;-70
2023/01/22 02:17:38;;;;;;;0.43;0.43;;;;;;;5.78;61.85;103450.56;4991415;28;20042;-70
2023/01/22 02:20:04;;;;;;;0.30;0.30;;;;;;;5.80;62.28;103453.91;4991013;28;20049;-70
2023/01/22 02:22:32;;;;;;;0.40;0.40;;;;;;;5.44;63.34;103457.00;4991416;28;20057;-73
2023/01/22 02:24:59;;;;;;;0.50;0.50;;;;;;;5.49;63.22;103454.78;4991894;28;20397;-71
2023/01/22 02:27:24;;;;;;;0.47;0.47;;;;;;;4.94;64.49;103455.84;4991235;28;20097;-71
2023/01/22 02:29:50;;;;;;;0.40;0.40;;;;;;;5.08;65.51;103456.41;4994466;28;20077;-71
2023/01/22 02:32:16;;;;;;;0.40;0.40;;;;;;;4.64;66.56;103461.81;4995155;28;20043;-71
2023/01/22 02:34:42;;;;;;;0.50;0.50;;;;;;;5.39;65.23;103446.72;4995027;28;20046;-70
2023/01/22 02:37:07;;;;;;;0.47;0.47;;;;;;;5.89;62.82;103447.84;4995181;28;20093;-70
2023/01/22 02:39:33;;;;;;;0.40;0.40;;;;;;;5.60;64.07;103444.09;4995146;28;20411;-71
2023/01/22 02:41:59;;;;;;;0.30;0.30;;;;;;;5.60;64.41;103446.75;4989340;28;20081;-70
2023/01/22 02:44:25;;;;;;;0.40;0.40;;;;;;;5.72;63.87;103435.06;4976142;28;20042;-72
2023/01/22 02:46:50;;;;;;;0.30;0.30;;;;;;;6.07;62.09;103444.41;4975930;28;20041;-71
2023/01/22 02:49:15;;;;;;;0.40;0.40;;;;;;;5.75;62.91;103430.31;4984974;28;20041;-70
2023/01/22 02:51:41;;;;;;;0.30;0.30;;;;;;;6.05;61.61;103440.22;4995458;28;20026;-71
2023/01/22 02:54:06;;;;;;;0.60;0.60;;;;;;;5.69;63.49;103440.63;4994511;28;20084;-70
2023/01/22 02:56:33;;;;;;;0.40;0.40;;;;;;;5.68;63.34;103437.13;4994646;28;20081;-70
2023/01/22 02:59:00;;;;;;;0.40;0.40;;;;;;;5.55;62.68;103435.63;4994693;28;20113;-72
2023/01/22 03:01:25;;;;;;;0.40;0.40;;;;;;;6.08;62.24;103431.94;4994868;28;20026;-71
2023/01/22 03:03:55;;;;;;;0.40;0.40;;;;;;;6.19;61.11;103430.00;4994238;28;20057;-70
2023/01/22 03:06:22;;;;;;;0.30;0.30;;;;;;;5.54;63.58;103432.13;4993357;28;20039;-71
2023/01/22 03:08:49;;;;;;;0.40;0.40;;;;;;;6.20;61.58;103428.19;4994974;28;20046;-70
2023/01/22 03:11:14;;;;;;;0.40;0.40;;;;;;;6.29;61.25;103437.25;4994830;28;20038;-71
2023/01/22 03:21:52;;;;;;;0.30;0.30;;;;;;;6.55;61.81;103439.31;4995070;28;20080;-72
2023/01/22 03:24:18;;;;;;;0.40;0.40;;;;;;;6.89;60.74;103440.69;4994696;28;20117;-71
2023/01/22 03:26:44;;;;;;;0.30;0.30;;;;;;;6.36;61.97;103443.72;4994372;28;20035;-71
2023/01/22 03:29:09;;;;;;;0.30;0.30;;;;;;;6.63;60.91;103434.13;4994572;28;20073;-70
2023/01/22 03:31:34;;;;;;;0.50;0.50;;;;;;;6.64;60.92;103430.50;4994463;28;20038;-70
2023/01/22 03:34:00;;;;;;;0.40;0.40;;;;;;;7.04;59.95;103425.91;4994633;28;20108;-70
2023/01/22 03:36:26;;;;;;;0.43;0.43;;;;;;;6.67;61.60;103424.88;4993740;28;20066;-71
2023/01/22 03:38:51;;;;;;;0.40;0.40;;;;;;;7.03;60.13;103431.41;4983411;28;20043;-69
2023/01/22 03:41:17;;;;;;;0.30;0.30;;;;;;;6.55;60.93;103428.63;4973827;28;20037;-71
2023/01/22 03:43:43;;;;;;;0.40;0.40;;;;;;;6.67;60.77;103434.69;5006022;28;20416;-71
2023/01/22 03:46:14;;;;;;;0.40;0.40;;;;;;;7.19;59.95;103428.19;4974579;28;20026;-70
2023/01/22 03:48:40;;;;;;;;;;;;;;;7.39;59.22;103430.72;4980599;28;20034;-71
2023/01/22 03:51:09;;;;;;;0.40;0.40;;;;;;;7.33;59.49;103439.28;4993729;28;20325;-72
2023/01/22 03:53:35;;;;;;;0.30;0.30;;;;;;;7.41;58.90;103428.75;4993873;28;20525;-71
2023/01/22 03:56:04;;;;;;;0.55;0.40;;;;;;;7.49;59.18;103436.09;4993766;28;20077;-72
2023/01/22 03:58:30;;;;;;;0.40;0.40;;;;;;;7.55;58.26;103433.66;4994304;28;20546;-71
2023/01/22 04:00:57;;;;;;;0.35;0.35;;;;;;;6.97;60.04;103427.47;4994108;28;20033;-72
2023/01/22 04:03:27;;;;;;;0.40;0.40;;;;;;;7.25;59.97;103424.97;4993725;28;20042;-71
2023/01/22 04:05:53;;;;;;;0.50;0.50;;;;;;;7.36;59.17;103419.47;4993772;28;20038;-70
2023/01/22 04:08:18;;;;;;;0.40;0.40;;;;;;;7.03;60.57;103426.91;5008612;28;20517;-70
2023/01/22 04:10:44;;;;;;;0.50;0.50;;;;;;;7.07;60.73;103414.97;4993603;28;20034;-71
2023/01/22 04:13:09;;;;;;;0.57;0.57;;;;;;;7.29;59.90;103426.38;4993669;28;20038;-71
2023/01/22 04:15:35;;;;;;;0.30;0.30;;;;;;;7.47;58.78;103419.34;4994057;28;20034;-72
2023/01/22 04:18:02;;;;;;;0.50;0.50;;;;;;;7.42;59.20;103417.06;4993104;28;20093;-72
2023/01/22 04:20:27;;;;;;;0.30;0.30;;;;;;;7.51;58.60;103418.06;4993322;28;20101;-71
2023/01/22 04:22:53;;;;;;;0.40;0.40;;;;;;;6.94;60.59;103416.19;4993148;28;20034;-71
2023/01/22 04:25:18;;;;;;;0.40;0.40;;;;;;;6.60;61.82;103413.03;4993702;28;20109;-71
2023/01/22 04:27:44;;;;;;;0.40;0.40;;;;;;;7.25;59.47;103419.59;4994208;28;20072;-70
2023/01/22 04:30:10;;;;;;;0.40;0.40;;;;;;;6.99;60.74;103416.63;4993585;28;20510;-71
2023/01/22 04:32:35;;;;;;;0.40;0.40;;;;;;;7.68;58.43;103417.31;4993701;28;20046;-71
2023/01/22 04:35:02;;;;;;;0.50;0.50;;;;;;;7.18;59.76;103413.97;4993065;28;20180;-71
2023/01/22 04:37:28;;;;;;;0.40;0.40;;;;;;;7.74;57.78;103416.75;4993372;28;20046;-71
2023/01/22 04:39:54;;;;;;;0.50;0.50;;;;;;;7.63;57.62;103422.25;4993625;28;20026;-71
2023/01/22 04:42:19;;;;;;;0.47;0.47;;;;;;;7.31;59.10;103422.53;4993221;28;20125;-70
2023/01/22 04:44:44;;;;;;;0.40;0.40;;;;;;;7.19;59.18;103420.16;4992846;28;20105;-71
2023/01/22 04:47:10;;;;;;;0.30;0.30;;;;;;;7.23;59.37;103426.94;4992935;28;20426;-71
2023/01/22 04:49:36;;;;;;;0.50;0.50;;;;;;;7.75;57.94;103424.63;4992761;28;20041;-71
2023/01/22 04:52:01;;;;;;;0.40;0.40;;;;;;;7.96;57.56;103427.97;4991553;28;20089;-68
2023/01/22 04:54:26;;;;;;;0.40;0.40;;;;;;;7.80;57.63;103426.88;4993044;28;20123;-71
2023/01/22 04:56:52;;;;;;;0.40;0.40;;;;;;;7.56;58.59;103427.34;4992949;28;20121;-70
2023/01/22 04:59:17;;;;;;;0.40;0.40;;;;;;;7.65;58.25;103426.47;4992572;28;20113;-71
2023/01/22 05:01:43;;;;;;;0.35;0.35;;;;;;;7.08;59.89;103426.47;4989900;28;20125;-71
2023/01/22 05:04:09;;;;;;;0.40;0.40;;;;;;;7.70;58.61;103424.25;4992027;28;20510;-72
2023/01/22 05:06:34;;;;;;;0.47;0.47;;;;;;;7.98;57.17;103420.63;4992533;28;20038;-71
2023/01/22 05:09:03;;;;;;;0.30;0.30;;;;;;;8.07;57.07;103426.09;4990895;28;20324;-71
2023/01/22 05:11:28;;;;;;;0.38;0.38;;;;;;;7.85;57.65;103429.97;4991527;28;20074;-71
2023/01/22 05:13:53;;;;;;;0.40;0.40;;;;;;;7.41;59.08;103433.28;4992141;28;20065;-70
2023/01/22 05:16:19;;;;;;;0.40;0.40;;;;;;;6.90;60.35;103434.34;4992187;28;20085;-71
2023/01/22 05:18:44;;;;;;;0.40;0.40;;;;;;;7.33;59.12;103433.13;4992897;28;20116;-72
2023/01/22 05:21:10;;;;;;;0.40;0.40;;;;;;;7.19;58.98;103436.22;4992406;28;20109;-70
2023/01/22 05:23:35;;;;;;;0.50;0.50;;;;;;;7.41;58.97;103442.13;4992270;28;20053;-71
2023/01/22 05:26:00;;;;;;;0.30;0.30;;;;;;;8.10;56.95;103441.91;4992335;28;20030;-70
2023/01/22 05:28:26;;;;;;;0.43;0.43;;;;;;;7.85;57.21;103435.31;4992271;28;20058;-72
2023/01/22 05:30:51;;;;;;;0.40;0.40;;;;;;;7.79;56.70;103434.06;4986384;28;20042;-71
2023/01/22 05:33:16;;;;;;;0.30;0.30;;;;;;;8.06;56.94;103443.19;4973384;28;20043;-71
2023/01/22 05:35:42;;;;;;;0.30;0.30;;;;;;;7.61;57.70;103442.94;4972374;28;20118;-70
2023/01/22 05:38:07;;;;;;;0.30;0.30;;;;;;;8.02;56.43;103451.47;4972454;28;20133;-72
2023/01/22 05:40:32;;;;;;;0.40;0.40;;;;;;;8.24;55.73;103452.13;4972473;28;20093;-71
2023/01/22 05:42:58;;;;;;;0.40;0.40;;;;;;;8.27;55.58;103452.72;4973107;28;20042;-70
2023/01/22 05:45:23;;;;;;;0.30;0.30;;;;;;;8.16;56.42;103452.00;4972613;28;20041;-71
2023/01/22 05:47:52;;;;;;;0.30;0.30;;;;;;;8.06;56.34;103453.88;4987552;28;20046;-71
2023/01/22 05:50:18;;;;;;;0.30;0.30;;;;;;;7.90;56.48;103449.13;4990389;28;20042;-71
2023/01/22 05:52:43;;;;;;;0.30;0.30;;;;;;;7.23;58.75;103442.97;4991999;28;20038;-70
2023/01/22 05:55:09;;;;;;;0.30;0.30;;;;;;;7.13;58.75;103451.81;4991757;28;20376;-70
2023/01/22 05:57:35;;;;;;;0.43;0.43;;;;;;;7.49;57.51;103444.94;4990804;28;20558;-71
2023/01/22 06:00:01;;;;;;;0.30;0.30;;;;;;;6.85;59.83;103443.75;4991718;28;20069;-70
2023/01/22 06:02:26;;;;;;;0.30;0.30;;;;;;;7.07;59.33;103438.19;4991604;28;20034;-70
2023/01/22 06:04:52;;;;;;;0.40;0.40;;;;;;;7.63;57.28;103439.16;4991230;28;20031;-70
2023/01/22 06:07:17;;;;;;;0.30;0.30;;;;;;;7.46;57.17;103426.50;4991770;28;20064;-71
2023/01/22 06:09:43;;;;;;;0.40;0.40;;;;;;;6.95;58.62;103434.78;4992100;28;20158;-71
2023/01/22 06:12:08;;;;;;;0.30;0.30;;;;;;;6.65;59.61;103434.84;4991910;28;20042;-71
2023/01/22 06:14:33;;;;;;;0.20;0.20;;;;;;;7.09;58.90;103438.88;4991722;28;20039;-71
2023/01/22 06:17:00;;;;;;;0.50;0.50;;;;;;;7.23;58.49;103443.81;4991200;28;20058;-72
2023/01/22 06:19:26;;;;;;;0.30;0.30;;;;;;;7.04;58.93;103443.78;4991479;28;20038;-72
2023/01/22 06:21:51;;;;;;;0.40;0.40;;;;;;;7.69;57.35;103429.72;4991734;28;20110;-71
2023/01/22 06:24:17;;;;;;;0.32;0.32;;;;;;;7.60;56.96;103435.94;4991476;28;20045;-71
2023/01/22 06:26:42;;;;;;;0.30;0.30;;;;;;;7.74;56.95;103435.50;4988698;28;20197;-73
2023/01/22 06:29:08;;;;;;;0.20;0.20;;;;;;;7.09;58.42;103426.34;4972249;28;20137;-71
2023/01/22 06:31:33;;;;;;;0.47;0.47;;;;;;;7.75;56.72;103438.00;4979668;28;20042;-72
2023/01/22 06:33:58;;;;;;;0.40;0.40;;;;;;;7.93;56.42;103433.63;4992226;28;20398;-72
2023/01/22 06:36:24;;;;;;;0.40;0.40;;;;;;;7.64;56.74;103440.84;4991304;28;20137;-71
2023/01/22 06:38:49;;;;;;;0.40;0.40;;;;;;;7.85;55.96;103436.16;4991790;28;20104;-71
2023/01/22 06:41:15;;;;;;;0.32;0.32;;;;;;;7.46;57.00;103431.84;4991736;28;20096;-70
2023/01/22 06:43:40;;;;;;;0.40;0.40;;;;;;;6.98;58.01;103437.16;4991457;28;20046;-71
2023/01/22 06:46:05;;;;;;;0.30;0.30;;;;;;;8.02;56.52;103443.44;4991791;28;20058;-71
2023/01/22 06:48:31;;;;;;;0.40;0.40;;;;;;;8.10;55.45;103445.41;4990354;28;20036;-72
2023/01/22 06:50:58;;;;;;;0.40;0.40;;;;;;;7.72;57.08;103437.47;4991298;28;20030;-73
2023/01/22 06:53:23;;;;;;;0.32;0.32;;;;;;;7.42;57.65;103442.97;4988036;28;20058;-71
2023/01/22 06:55:48;;;;;;;0.22;0.22;;;;;;;7.21;58.55;103444.94;4971981;28;20396;-71
2023/01/22 06:58:14;;;;;;;0.40;0.40;;;;;;;8.02;56.55;103447.94;4971437;28;20167;-71
2023/01/22 07:00:40;;;;;;;0.30;0.30;;;;;;;8.29;55.35;103449.91;4976927;28;20049;-71
2023/01/22 07:03:06;;;;;;;0.47;0.47;;;;;;;7.76;57.40;103452.25;4990429;28;20046;-72
2023/01/22 07:05:31;;;;;;;0.30;0.30;;;;;;;7.68;57.51;103460.16;4990452;28;20480;-71
2023/01/22 07:07:57;;;;;;;0.45;0.45;;;;;;;7.88;56.22;103446.56;4990516;28;20035;-71
2023/01/22 07:10:22;;;;;;;0.40;0.40;;;;;;;7.98;56.50;103454.59;4990498;28;20121;-73
2023/01/22 07:12:52;;;;;;;0.25;0.25;;;;;;;8.05;56.01;103453.03;4990817;28;20101;-70
2023/01/22 07:15:18;;;;;;;0.20;0.20;;;;;;;8.56;54.92;103455.28;4991289;28;20069;-71
2023/01/22 07:17:48;;;;;;;0.30;0.30;;;;;;;8.74;54.61;103448.13;4994097;28;20065;-72
2023/01/22 07:20:14;;;;;;;0.30;0.30;;;;;;;8.45;55.35;103453.63;4992068;28;20048;-71
2023/01/22 07:22:39;;;;;;;0.30;0.30;;;;;;;8.48;54.88;103444.44;4993498;28;20038;-71
2023/01/22 07:25:05;;;;;;;0.40;0.40;;;;;;;7.48;58.06;103447.75;4994295;28;20550;-71
2023/01/22 07:27:33;;;;;;;0.20;0.20;;;;;;;7.28;58.74;103435.34;4991524;28;20530;-71
2023/01/22 07:29:58;;;;;;;0.40;0.40;;;;;;;8.04;56.82;103454.00;4993563;28;20031;-71
2023/01/22 07:32:23;;;;;;;0.30;0.30;;;;;;;7.43;58.18;103444.69;4992078;28;20054;-70
2023/01/22 07:34:49;;;;;;;0.30;0.30;;;;;;;7.25;58.99;103436.50;4993185;28;20450;-71
2023/01/22 07:37:14;;;;;;;0.40;0.40;;;;;;;6.70;60.17;103443.28;4993485;28;20054;-71
2023/01/22 07:39:40;;;;;;;0.30;0.30;;;;;;;6.44;62.08;103444.75;4990244;28;20049;-70
2023/01/22 07:42:05;;;;;;;0.30;0.30;;;;;;;6.44;61.07;103451.91;4984712;28;20122;-72
2023/01/22 07:44:30;;;;;;;0.30;0.30;;;;;;;6.55;60.90;103451.81;4987070;28;20406;-71
2023/01/22 07:46:56;;;;;;;0.30;0.30;;;;;;;6.93;60.03;103452.78;4985150;28;20092;-72
2023/01/22 07:49:21;;;;;;;0.30;0.30;;;;;;;6.97;60.17;103454.19;4991283;28;20038;-72
2023/01/22 07:51:47;;;;;;;0.50;0.50;;;;;;;7.20;58.97;103445.91;4986598;28;20481;-71
2023/01/22 07:54:12;;;;;;;0.30;0.30;;;;;;;7.35;58.50;103453.38;4991392;28;20061;-71
2023/01/22 07:56:37;;;;;;;0.40;0.40;;;;;;;7.50;58.23;103459.16;4985468;28;20399;-72
2023/01/22 07:59:04;;;;;;;0.38;0.38;;;;;;;6.57;60.76;103458.72;4987617;28;20043;-71
2023/01/22 08:01:30;;;;;;;0.40;0.40;;;;;;;6.66;60.62;103457.88;4987024;28;20045;-71
2023/01/22 08:03:56;;;;;;;0.50;0.50;;;;;;;6.75;60.78;103462.44;4985937;28;20042;-72
2023/01/22 08:06:22;;;;;;;0.32;0.32;;;;;;;6.42;61.59;103469.91;4985684;28;20034;-72
2023/01/22 08:08:47;;;;;;;0.40;0.40;;;;;;;7.67;58.41;103466.47;4984156;28;20031;-72
2023/01/22 08:11:13;;;;;;;0.40;0.40;;;;;;;7.23;58.81;103464.38;4986870;28;20058;-72
2023/01/22 08:13:38;;;;;;;0.38;0.38;;;;;;;7.45;57.15;103461.44;4986639;28;20540;-70
2023/01/22 08:16:05;;;;;;;0.45;0.45;;;;;;;6.52;60.20;103463.63;4984588;28;20035;-71
2023/01/22 08:18:30;;;;;;;0.40;0.40;;;;;;;7.42;59.02;103465.22;4987185;28;20026;-71
2023/01/22 08:20:59;;;;;;;0.25;0.25;;;;;;;7.13;59.27;103470.53;4984333;28;20450;-70
2023/01/22 08:23:25;;;;;;;0.30;0.30;;;;;;;6.83;61.13;103469.78;4989447;28;20538;-72
2023/01/22 08:25:50;;;;;;;0.30;0.30;;;;;;;6.63;61.57;103470.69;4992190;28;20031;-73
2023/01/22 08:28:16;;;;;;;0.30;0.30;;;;;;;7.39;58.87;103473.50;4993133;28;20083;-72
2023/01/22 08:30:41;;;;;;;0.40;0.40;;;;;;;7.24;59.48;103468.72;4993460;28;20166;-73
2023/01/22 08:33:06;;;;;;;0.30;0.30;;;;;;;6.99;60.93;103472.78;4993390;28;20046;-71
2023/01/22 08:35:32;;;;;;;0.40;0.40;;;;;;;6.98;60.10;103469.25;4993590;28;20050;-72
2023/01/22 08:37:58;;;;;;;0.30;0.30;;;;;;;7.65;58.46;103465.75;4992876;28;20482;-72
2023/01/22 08:40:24;;;;;;;0.32;0.32;;;;;;;7.04;59.65;103459.81;4992595;28;20038;-71
2023/01/22 08:42:51;;;;;;;0.40;0.40;;;;;;;6.67;61.57;103472.09;4993318;28;20224;-70
2023/01/22 08:45:16;;;;;;;0.40;0.40;;;;;;;7.81;58.52;103472.25;4992938;28;20031;-71
2023/01/22 08:47:41;;;;;;;0.40;0.40;;;;;;;7.63;58.40;103481.13;4992670;28;20084;-72
2023/01/22 08:50:07;;;;;;;0.35;0.35;;;;;;;7.43;58.33;103474.91;4991620;28;20043;-71
2023/01/22 08:52:33;;;;;;;0.40;0.40;;;;;;;7.60;59.10;103482.25;4992447;28;20030;-71
2023/01/22 08:54:58;;;;;;;0.30;0.30;;;;;;;7.41;59.58;103489.44;4991110;28;20097;-72
2023/01/22 08:57:24;;;;;;;0.35;0.35;;;;;;;7.64;58.36;103482.81;4990228;28;20141;-71
2023/01/22 08:59:49;;;;;;;0.40;0.40;;;;;;;7.93;58.46;103484.50;4998936;28;20034;-71
2023/01/22 09:02:14;;;;;;;0.30;0.30;;;;;;;7.61;59.32;103483.94;4991999;28;20145;-71
2023/01/22 09:04:40;;;;;;;0.38;0.38;;;;;;;7.07;59.51;103483.63;4992185;28;20117;-71
2023/01/22 09:07:06;;;;;;;0.40;0.40;;;;;;;7.93;58.45;103486.31;4991881;28;20062;-71
2023/01/22 09:09:32;;;;;;;0.30;0.30;;;;;;;7.37;58.54;103486.19;4991140;28;20049;-72
2023/01/22 09:11:57;;;;;;;0.40;0.40;;;;;;;7.52;59.85;103481.28;4992021;28;20035;-73
2023/01/22 09:14:22;;;;;;;0.30;0.30;;;;;;;7.73;58.78;103495.34;4992200;28;20125;-72
2023/01/22 09:16:48;;;;;;;0.40;0.40;;;;;;;7.82;58.37;103484.63;4991456;28;20049;-71
2023/01/22 09:19:13;;;;;;;0.30;0.30;;;;;;;6.94;61.29;103499.03;4991693;28;20601;-70
2023/01/22 09:21:39;;;;;;;0.57;0.57;;;;;;;7.43;59.58;103490.16;4990124;28;20030;-73
2023/01/22 09:24:05;;;;;;;0.30;0.30;;;;;;;7.67;59.15;103491.41;4990368;28;20475;-72
2023/01/22 09:26:31;;;;;;;0.40;0.40;;;;;;;7.81;57.57;103498.16;4991292;28;20023;-71
2023/01/22 09:28:59;;;;;;;0.30;0.30;;;;;;;7.54;57.95;103496.22;4991606;28;20039;-72
2023/01/22 09:31:25;;;;;;;0.30;0.30;;;;;;;7.51;59.44;103495.66;4991796;28;20038;-73
2023/01/22 09:33:51;;;;;;;0.20;0.20;;;;;;;6.63;61.40;103498.25;4991326;28;20209;-72
2023/01/22 09:36:17;;;;;;;0.30;0.30;;;;;;;7.71;59.33;103498.16;4988480;28;20053;-73
2023/01/22 09:38:43;;;;;;;0.40;0.40;;;;;;;7.79;58.17;103500.13;4991086;28;20034;-73
2023/01/22 09:41:22;;;;;;;0.40;0.40;;;;;;;7.40;59.93;103504.63;4989603;28;20118;-72
2023/01/22 09:44:02;;;;;;;0.30;0.30;;;;;;;7.76;59.30;103497.75;4991463;28;20034;-71
2023/01/22 09:46:30;;;;;;;0.30;0.30;;;;;;;8.25;57.03;103519.00;4990780;28;20045;-71
2023/01/22 09:49:02;;;;;;;0.30;0.30;;;;;;;7.72;58.86;103515.94;4989258;28;20138;-72
2023/01/22 09:51:27;;;;;;;0.30;0.30;;;;;;;8.13;57.13;103521.94;4991100;28;20041;-71
2023/01/22 09:53:57;;;;;;;0.50;0.50;;;;;;;7.28;60.34;103523.63;4990674;28;20054;-71
2023/01/22 09:56:32;;;;;;;0.50;0.50;;;;;;;8.08;58.63;103516.19;4991549;28;20297;-72
2023/01/22 09:59:00;;;;;;;0.30;0.30;;;;;;;7.62;59.21;103524.94;4991023;28;20101;-72
2023/01/22 10:01:26;;;;;;;0.30;0.30;;;;;;;6.99;61.45;103528.91;4991051;28;20030;-72
2023/01/22 10:04:02;;;;;;;0.50;0.50;;;;;;;7.22;62.15;103522.34;4991141;28;20487;-70
2023/01/22 10:06:28;;;;;;;0.30;0.30;;;;;;;7.34;61.75;103529.28;4990067;28;20076;-72
2023/01/22 10:09:12;;;;;;;0.40;0.40;;;;;;;7.96;59.24;103519.00;4990859;28;20030;-71
2023/01/22 10:11:38;;;;;;;0.50;0.50;;;;;;;7.52;59.84;103522.25;4987923;28;20042;-71
2023/01/22 10:14:13;;;;;;;0.50;0.50;;;;;;;7.88;59.55;103523.38;4988774;28;20085;-71
2023/01/22 10:16:39;;;;;;;0.47;0.47;;;;;;;7.10;61.73;103526.09;4987757;28;20530;-72
2023/01/22 10:19:19;;;;;;;0.50;0.50;;;;;;;7.71;60.11;103513.38;4990854;28;20034;-70
2023/01/22 10:21:47;;;;;;;0.30;0.30;;;;;;;7.79;59.83;103519.72;4986725;28;20046;-71
2023/01/22 10:24:13;;;;;;;0.38;0.38;;;;;;;7.67;58.98;103514.63;4988687;28;20395;-71
2023/01/22 10:26:51;;;;;;;0.40;0.40;;;;;;;7.73;58.83;103511.41;4990363;28;20030;-71
2023/01/22 10:29:29;;;;;;;0.35;0.35;;;;;;;7.57;60.64;103508.44;4990333;28;20038;-71
2023/01/22 10:31:57;;;;;;;0.43;0.43;;;;;;;7.60;59.69;103508.16;4990583;28;20041;-71
2023/01/22 10:34:29;;;;;;;0.30;0.30;;;;;;;7.34;60.23;103512.38;4990350;28;20042;-71
2023/01/22 10:37:03;;;;;;;0.50;0.50;;;;;;;6.87;61.96;103511.28;4989064;28;20042;-72
2023/01/22 10:39:41;;;;;;;0.43;0.43;;;;;;;7.46;60.60;103509.44;4988060;28;20038;-71
2023/01/22 10:42:18;;;;;;;0.52;0.52;;;;;;;8.26;58.63;103498.38;4991459;28;20041;-71
2023/01/22 10:44:44;;;;;;;0.38;0.38;;;;;;;8.04;58.93;103504.88;4991517;28;20066;-72
2023/01/22 10:47:19;;;;;;;0.30;0.30;;;;;;;7.42;60.74;103497.31;4986549;28;20066;-72
2023/01/22 10:49:45;;;;;;;0.32;0.32;;;;;;;7.36;61.02;103500.56;4992490;28;20108;-72
2023/01/22 10:52:23;;;;;;;0.45;0.45;;;;;;;8.49;58.44;103497.06;4994405;28;20486;-72
2023/01/22 10:54:58;;;;;;;0.30;0.30;;;;;;;7.90;58.67;103500.00;4991206;28;20113;-70
2023/01/22 10:57:31;;;;;;;0.30;0.30;;;;;;;7.97;59.64;103501.09;4986761;28;20045;-71
2023/01/22 11:00:14;;;;;;;0.30;0.30;;;;;;;6.84;63.14;103501.69;4981666;28;20515;-70
2023/01/22 11:02:42;;;;;;;0.30;0.30;;;;;;;6.21;65.20;103497.47;4983473;28;20062;-71
2023/01/22 11:05:17;;;;;;;0.30;0.30;;;;;;;6.58;64.79;103488.94;4987303;28;20042;-71
2023/01/22 11:07:45;;;;;;;0.30;0.30;;;;;;;5.90;66.32;103490.41;4985681;28;20281;-71
2023/01/22 11:10:22;;;;;;;0.50;0.50;;;;;;;8.03;60.69;103497.84;4985990;28;20478;-71
2023/01/22 11:12:59;;;;;;;0.38;0.38;;;;;;;7.92;61.14;103484.63;4986388;28;20194;-71
2023/01/22 11:15:52;;;;;;;0.43;0.43;;;;;;;8.23;59.01;103493.31;4985227;28;20125;-70
2023/01/22 11:18:35;;;;;;;0.40;0.40;;;;;;;7.28;61.63;103492.38;4981634;28;20046;-71
2023/01/22 11:21:03;;;;;;;0.60;0.60;;;;;;;7.66;61.36;103486.19;4984510;28;20121;-71
2023/01/22 11:23:54;;;;;;;0.30;0.30;;;;;;;8.40;58.58;103489.88;4985969;28;20077;-70
2023/01/22 11:26:37;;;;;;;0.35;0.35;;;;;;;7.52;60.53;103490.16;4984412;28;20059;-70
2023/01/22 11:29:11;;;;;;;0.30;0.30;;;;;;;8.53;58.75;103477.03;4983611;28;20041;-70
2023/01/22 11:31:58;;;;;;;0.40;0.40;;;;;;;8.32;59.28;103479.06;4985936;28;20129;-71
2023/01/22 11:34:56;;;;;;;0.32;0.32;;;;;;;8.12;59.77;103477.41;4986541;28;20057;-70
2023/01/22 11:37:39;;;;;;;0.40;0.40;;;;;;;8.31;58.95;103472.88;4984186;28;20549;-70
2023/01/22 11:40:33;;;;;;;0.30;0.30;;;;;;;8.50;58.66;103474.63;4982771;28;20038;-71
2023/01/22 11:43:07;;;;;;;0.30;0.30;;;;;;;7.57;61.56;103471.81;4983659;28;20557;-71